sensor_id;sensor_type;location;lat;lon;timestamp;pressure;altitude;pressure_sealevel;temperature;humidity
19596;BME280;9945;46.010;8.946;2023-04-27T00:01:42;97170.81;;;15.98;43.29
19596;BME280;9945;46.010;8.946;2023-04-27T00:04:09;97175.19;;;15.91;44.06
19596;BME280;9945;46.010;8.946;2023-04-27T00:06:35;97173.72;;;15.88;43.94
19596;BME280;9945;46.010;8.946;2023-04-27T00:09:02;97169.53;;;15.94;42.96
19596;BME280;9945;46.010;8.946;2023-04-27T00:11:29;97172.44;;;15.99;43.37
19596;BME280;9945;46.010;8.946;2023-04-27T00:13:56;97169.00;;;15.98;43.09
19596;BME280;9945;46.010;8.946;2023-04-27T00:16:23;97163.88;;;15.97;42.42
19596;BME280;9945;46.010;8.946;2023-04-27T00:18:51;97165.06;;;15.94;40.79
19596;BME280;9945;46.010;8.946;2023-04-27T00:21:18;97172.81;;;15.96;41.64
19596;BME280;9945;46.010;8.946;2023-04-27T00:23:45;97164.53;;;15.99;41.01
19596;BME280;9945;46.010;8.946;2023-04-27T00:26:12;97162.31;;;16.02;40.84
19596;BME280;9945;46.010;8.946;2023-04-27T00:28:39;97162.16;;;16.04;40.49
19596;BME280;9945;46.010;8.946;2023-04-27T00:31:06;97160.84;;;16.00;40.62
19596;BME280;9945;46.010;8.946;2023-04-27T00:33:33;97162.06;;;15.97;40.85
19596;BME280;9945;46.010;8.946;2023-04-27T00:36:02;97153.13;;;15.83;40.62
19596;BME280;9945;46.010;8.946;2023-04-27T00:38:29;97161.97;;;15.76;41.56
19596;BME280;9945;46.010;8.946;2023-04-27T00:41:06;97157.06;;;15.73;41.32
19596;BME280;9945;46.010;8.946;2023-04-27T00:43:40;97153.47;;;15.66;42.25
19596;BME280;9945;46.010;8.946;2023-04-27T00:46:08;97154.22;;;15.74;42.28
19596;BME280;9945;46.010;8.946;2023-04-27T00:48:35;97153.41;;;15.74;42.39
19596;BME280;9945;46.010;8.946;2023-04-27T00:51:04;97155.25;;;15.73;41.94
19596;BME280;9945;46.010;8.946;2023-04-27T00:53:31;97145.59;;;15.80;42.13
19596;BME280;9945;46.010;8.946;2023-04-27T00:55:58;97156.06;;;15.88;42.28
19596;BME280;9945;46.010;8.946;2023-04-27T00:58:25;97158.66;;;15.74;42.26
19596;BME280;9945;46.010;8.946;2023-04-27T01:00:52;97162.50;;;15.57;42.48
19596;BME280;9945;46.010;8.946;2023-04-27T01:03:19;97150.41;;;15.62;42.20
19596;BME280;9945;46.010;8.946;2023-04-27T01:05:46;97153.47;;;15.66;41.67
19596;BME280;9945;46.010;8.946;2023-04-27T01:08:14;97161.88;;;15.69;42.19
19596;BME280;9945;46.010;8.946;2023-04-27T01:10:41;97154.69;;;15.63;42.40
19596;BME280;9945;46.010;8.946;2023-04-27T01:13:08;97153.44;;;15.51;42.53
19596;BME280;9945;46.010;8.946;2023-04-27T01:15:35;97149.81;;;15.52;43.24
19596;BME280;9945;46.010;8.946;2023-04-27T01:18:02;97150.22;;;15.41;42.27
19596;BME280;9945;46.010;8.946;2023-04-27T01:20:29;97157.81;;;15.44;42.25
19596;BME280;9945;46.010;8.946;2023-04-27T01:22:57;97157.25;;;15.48;42.89
19596;BME280;9945;46.010;8.946;2023-04-27T01:25:25;97152.50;;;15.29;43.11
19596;BME280;9945;46.010;8.946;2023-04-27T01:27:52;97165.22;;;15.26;43.12
19596;BME280;9945;46.010;8.946;2023-04-27T01:30:19;97163.13;;;15.21;43.58
19596;BME280;9945;46.010;8.946;2023-04-27T01:32:47;97167.00;;;15.10;43.70
19596;BME280;9945;46.010;8.946;2023-04-27T01:35:13;97175.81;;;15.03;43.70
19596;BME280;9945;46.010;8.946;2023-04-27T01:37:40;97178.56;;;15.09;43.64
19596;BME280;9945;46.010;8.946;2023-04-27T01:40:08;97169.94;;;14.93;44.14
19596;BME280;9945;46.010;8.946;2023-04-27T01:42:36;97176.16;;;15.00;44.01
19596;BME280;9945;46.010;8.946;2023-04-27T01:45:04;97173.75;;;14.90;44.02
19596;BME280;9945;46.010;8.946;2023-04-27T01:47:31;97173.00;;;15.04;43.34
19596;BME280;9945;46.010;8.946;2023-04-27T01:49:58;97175.81;;;15.03;43.50
19596;BME280;9945;46.010;8.946;2023-04-27T01:52:25;97178.28;;;15.04;43.54
19596;BME280;9945;46.010;8.946;2023-04-27T01:54:51;97188.88;;;14.96;43.82
19596;BME280;9945;46.010;8.946;2023-04-27T01:57:18;97186.03;;;14.98;43.19
19596;BME280;9945;46.010;8.946;2023-04-27T01:59:47;97190.81;;;15.02;42.98
19596;BME280;9945;46.010;8.946;2023-04-27T02:02:13;97194.19;;;15.11;43.27
19596;BME280;9945;46.010;8.946;2023-04-27T02:04:40;97193.56;;;15.09;42.73
19596;BME280;9945;46.010;8.946;2023-04-27T02:07:09;97187.69;;;14.99;42.90
19596;BME280;9945;46.010;8.946;2023-04-27T02:09:36;97190.44;;;14.83;43.55
19596;BME280;9945;46.010;8.946;2023-04-27T02:12:03;97198.47;;;14.89;43.37
19596;BME280;9945;46.010;8.946;2023-04-27T02:14:30;97197.84;;;14.87;43.46
19596;BME280;9945;46.010;8.946;2023-04-27T02:16:59;97206.31;;;14.74;44.16
19596;BME280;9945;46.010;8.946;2023-04-27T02:19:25;97203.69;;;14.97;43.63
19596;BME280;9945;46.010;8.946;2023-04-27T02:21:52;97203.16;;;14.79;44.19
19596;BME280;9945;46.010;8.946;2023-04-27T02:24:19;97202.97;;;14.81;44.06
19596;BME280;9945;46.010;8.946;2023-04-27T02:26:46;97210.66;;;14.90;43.65
19596;BME280;9945;46.010;8.946;2023-04-27T02:29:13;97206.78;;;14.78;44.12
19596;BME280;9945;46.010;8.946;2023-04-27T02:31:41;97221.63;;;14.79;43.70
19596;BME280;9945;46.010;8.946;2023-04-27T02:34:09;97212.22;;;14.76;44.21
19596;BME280;9945;46.010;8.946;2023-04-27T02:36:36;97219.84;;;14.71;45.06
19596;BME280;9945;46.010;8.946;2023-04-27T02:39:03;97214.38;;;14.73;45.21
19596;BME280;9945;46.010;8.946;2023-04-27T02:41:30;97213.72;;;14.79;44.56
19596;BME280;9945;46.010;8.946;2023-04-27T02:43:57;97213.41;;;14.74;44.56
19596;BME280;9945;46.010;8.946;2023-04-27T02:46:24;97211.50;;;14.60;44.50
19596;BME280;9945;46.010;8.946;2023-04-27T02:48:52;97215.47;;;14.56;45.29
19596;BME280;9945;46.010;8.946;2023-04-27T02:51:20;97219.75;;;14.57;45.41
19596;BME280;9945;46.010;8.946;2023-04-27T02:53:48;97221.06;;;14.61;46.38
19596;BME280;9945;46.010;8.946;2023-04-27T02:56:14;97216.25;;;14.64;45.33
19596;BME280;9945;46.010;8.946;2023-04-27T02:58:41;97218.25;;;14.62;45.67
19596;BME280;9945;46.010;8.946;2023-04-27T03:01:09;97211.97;;;14.63;46.64
19596;BME280;9945;46.010;8.946;2023-04-27T03:03:36;97217.59;;;14.60;46.35
19596;BME280;9945;46.010;8.946;2023-04-27T03:06:03;97216.88;;;14.44;46.67
19596;BME280;9945;46.010;8.946;2023-04-27T03:08:31;97218.81;;;14.50;46.20
19596;BME280;9945;46.010;8.946;2023-04-27T03:10:58;97216.50;;;14.47;46.36
19596;BME280;9945;46.010;8.946;2023-04-27T03:13:25;97218.88;;;14.64;45.26
19596;BME280;9945;46.010;8.946;2023-04-27T03:15:52;97221.88;;;14.61;45.09
19596;BME280;9945;46.010;8.946;2023-04-27T03:18:19;97217.78;;;14.59;44.19
19596;BME280;9945;46.010;8.946;2023-04-27T03:20:46;97218.91;;;14.56;44.77
19596;BME280;9945;46.010;8.946;2023-04-27T03:23:13;97223.41;;;14.48;44.65
19596;BME280;9945;46.010;8.946;2023-04-27T03:25:41;97222.41;;;14.49;44.19
19596;BME280;9945;46.010;8.946;2023-04-27T03:28:08;97219.34;;;14.45;44.89
19596;BME280;9945;46.010;8.946;2023-04-27T03:30:38;97211.75;;;14.34;45.76
19596;BME280;9945;46.010;8.946;2023-04-27T03:33:04;97213.56;;;14.33;44.49
19596;BME280;9945;46.010;8.946;2023-04-27T03:35:31;97212.78;;;14.25;44.89
19596;BME280;9945;46.010;8.946;2023-04-27T03:37:58;97218.75;;;14.19;45.80
19596;BME280;9945;46.010;8.946;2023-04-27T03:40:25;97227.72;;;14.32;45.04
19596;BME280;9945;46.010;8.946;2023-04-27T03:42:53;97221.06;;;14.14;46.35
19596;BME280;9945;46.010;8.946;2023-04-27T03:45:20;97226.69;;;14.11;46.90
19596;BME280;9945;46.010;8.946;2023-04-27T03:47:49;97229.13;;;14.12;46.88
19596;BME280;9945;46.010;8.946;2023-04-27T03:50:16;97221.88;;;14.14;46.68
19596;BME280;9945;46.010;8.946;2023-04-27T03:52:42;97221.53;;;14.17;47.55
19596;BME280;9945;46.010;8.946;2023-04-27T03:55:09;97226.00;;;14.17;47.06
19596;BME280;9945;46.010;8.946;2023-04-27T03:57:36;97228.91;;;14.22;47.15
19596;BME280;9945;46.010;8.946;2023-04-27T04:00:06;97224.47;;;14.22;48.29
19596;BME280;9945;46.010;8.946;2023-04-27T04:02:35;97222.38;;;14.18;48.00
19596;BME280;9945;46.010;8.946;2023-04-27T04:05:02;97223.66;;;14.22;48.38
19596;BME280;9945;46.010;8.946;2023-04-27T04:07:29;97231.06;;;14.26;48.73
19596;BME280;9945;46.010;8.946;2023-04-27T04:09:56;97229.28;;;14.19;48.46
19596;BME280;9945;46.010;8.946;2023-04-27T04:12:23;97234.88;;;14.16;48.92
19596;BME280;9945;46.010;8.946;2023-04-27T04:14:50;97239.19;;;14.09;49.98
19596;BME280;9945;46.010;8.946;2023-04-27T04:17:18;97244.78;;;14.06;48.98
19596;BME280;9945;46.010;8.946;2023-04-27T04:19:45;97245.28;;;14.09;49.42
19596;BME280;9945;46.010;8.946;2023-04-27T04:22:12;97246.41;;;14.15;49.93
19596;BME280;9945;46.010;8.946;2023-04-27T04:24:38;97252.19;;;14.10;49.55
19596;BME280;9945;46.010;8.946;2023-04-27T04:27:06;97255.13;;;14.15;49.63
19596;BME280;9945;46.010;8.946;2023-04-27T04:29:33;97260.91;;;14.11;50.92
19596;BME280;9945;46.010;8.946;2023-04-27T04:32:00;97264.38;;;14.11;50.15
19596;BME280;9945;46.010;8.946;2023-04-27T04:34:28;97265.81;;;14.14;49.96
19596;BME280;9945;46.010;8.946;2023-04-27T04:36:55;97270.03;;;14.31;47.94
19596;BME280;9945;46.010;8.946;2023-04-27T04:39:22;97280.97;;;14.12;48.54
19596;BME280;9945;46.010;8.946;2023-04-27T04:41:49;97283.13;;;14.00;48.66
19596;BME280;9945;46.010;8.946;2023-04-27T04:44:17;97280.66;;;13.98;47.93
19596;BME280;9945;46.010;8.946;2023-04-27T04:46:45;97284.44;;;13.96;48.16
19596;BME280;9945;46.010;8.946;2023-04-27T04:49:12;97291.34;;;14.05;48.14
19596;BME280;9945;46.010;8.946;2023-04-27T04:51:42;97287.88;;;14.05;47.18
19596;BME280;9945;46.010;8.946;2023-04-27T04:54:10;97293.66;;;14.00;47.54
19596;BME280;9945;46.010;8.946;2023-04-27T04:56:37;97290.06;;;13.93;48.57
19596;BME280;9945;46.010;8.946;2023-04-27T04:59:04;97296.31;;;13.92;48.59
19596;BME280;9945;46.010;8.946;2023-04-27T05:01:31;97295.16;;;13.94;49.50
19596;BME280;9945;46.010;8.946;2023-04-27T05:03:58;97301.75;;;13.90;48.75
19596;BME280;9945;46.010;8.946;2023-04-27T05:06:27;97298.28;;;13.82;49.23
19596;BME280;9945;46.010;8.946;2023-04-27T05:08:55;97302.88;;;13.88;50.69
19596;BME280;9945;46.010;8.946;2023-04-27T05:11:22;97298.94;;;13.92;49.05
19596;BME280;9945;46.010;8.946;2023-04-27T05:13:49;97301.72;;;13.98;50.23
19596;BME280;9945;46.010;8.946;2023-04-27T05:16:16;97296.13;;;14.01;50.18
19596;BME280;9945;46.010;8.946;2023-04-27T05:18:43;97312.44;;;13.89;50.82
19596;BME280;9945;46.010;8.946;2023-04-27T05:21:13;97306.16;;;13.98;50.36
19596;BME280;9945;46.010;8.946;2023-04-27T05:23:40;97306.00;;;14.08;50.54
19596;BME280;9945;46.010;8.946;2023-04-27T05:26:12;97310.56;;;14.14;52.07
19596;BME280;9945;46.010;8.946;2023-04-27T05:28:39;97308.09;;;14.12;53.13
19596;BME280;9945;46.010;8.946;2023-04-27T05:31:06;97314.84;;;14.23;51.67
19596;BME280;9945;46.010;8.946;2023-04-27T05:33:34;97308.25;;;14.27;52.45
19596;BME280;9945;46.010;8.946;2023-04-27T05:36:01;97315.66;;;14.23;51.38
19596;BME280;9945;46.010;8.946;2023-04-27T05:38:27;97320.75;;;14.33;51.39
19596;BME280;9945;46.010;8.946;2023-04-27T05:40:55;97323.69;;;14.38;50.93
19596;BME280;9945;46.010;8.946;2023-04-27T05:43:24;97320.25;;;14.46;51.57
19596;BME280;9945;46.010;8.946;2023-04-27T05:45:51;97317.56;;;14.62;50.06
19596;BME280;9945;46.010;8.946;2023-04-27T05:48:19;97318.19;;;14.64;50.33
19596;BME280;9945;46.010;8.946;2023-04-27T05:50:46;97318.16;;;14.72;49.52
19596;BME280;9945;46.010;8.946;2023-04-27T05:53:12;97318.81;;;14.74;50.63
19596;BME280;9945;46.010;8.946;2023-04-27T05:55:39;97321.13;;;14.77;49.69
19596;BME280;9945;46.010;8.946;2023-04-27T05:58:06;97324.97;;;14.97;49.12
19596;BME280;9945;46.010;8.946;2023-04-27T06:00:34;97326.81;;;14.89;48.90
19596;BME280;9945;46.010;8.946;2023-04-27T06:03:02;97329.28;;;14.90;48.83
19596;BME280;9945;46.010;8.946;2023-04-27T06:05:29;97332.38;;;15.02;48.69
19596;BME280;9945;46.010;8.946;2023-04-27T06:07:56;97337.66;;;15.02;48.61
19596;BME280;9945;46.010;8.946;2023-04-27T06:10:23;97328.25;;;14.99;50.33
19596;BME280;9945;46.010;8.946;2023-04-27T06:12:50;97339.72;;;15.14;50.59
19596;BME280;9945;46.010;8.946;2023-04-27T06:15:17;97331.97;;;15.44;50.76
19596;BME280;9945;46.010;8.946;2023-04-27T06:17:45;97343.09;;;15.62;51.17
19596;BME280;9945;46.010;8.946;2023-04-27T06:20:12;97342.09;;;15.63;50.80
19596;BME280;9945;46.010;8.946;2023-04-27T06:22:38;97353.09;;;15.67;51.20
19596;BME280;9945;46.010;8.946;2023-04-27T06:25:06;97354.00;;;15.82;50.53
19596;BME280;9945;46.010;8.946;2023-04-27T06:27:33;97355.06;;;15.73;50.89
19596;BME280;9945;46.010;8.946;2023-04-27T06:30:00;97348.38;;;15.62;52.38
19596;BME280;9945;46.010;8.946;2023-04-27T06:32:27;97350.13;;;15.70;53.23
19596;BME280;9945;46.010;8.946;2023-04-27T06:34:56;97355.69;;;15.98;51.64
19596;BME280;9945;46.010;8.946;2023-04-27T06:37:22;97356.44;;;16.06;51.84
19596;BME280;9945;46.010;8.946;2023-04-27T06:39:49;97365.72;;;16.17;52.66
19596;BME280;9945;46.010;8.946;2023-04-27T06:42:16;97363.56;;;16.20;51.93
19596;BME280;9945;46.010;8.946;2023-04-27T06:44:43;97365.13;;;16.30;51.16
19596;BME280;9945;46.010;8.946;2023-04-27T06:47:10;97360.22;;;16.56;51.56
19596;BME280;9945;46.010;8.946;2023-04-27T06:49:37;97363.25;;;16.68;51.19
19596;BME280;9945;46.010;8.946;2023-04-27T06:52:06;97372.22;;;16.67;51.38
19596;BME280;9945;46.010;8.946;2023-04-27T06:54:33;97370.91;;;16.62;52.16
19596;BME280;9945;46.010;8.946;2023-04-27T06:56:59;97380.06;;;16.37;52.83
19596;BME280;9945;46.010;8.946;2023-04-27T06:59:27;97379.53;;;16.42;51.97
19596;BME280;9945;46.010;8.946;2023-04-27T07:01:54;97379.59;;;16.34;54.15
19596;BME280;9945;46.010;8.946;2023-04-27T07:04:21;97383.28;;;16.47;52.87
19596;BME280;9945;46.010;8.946;2023-04-27T07:06:48;97378.16;;;16.31;52.37
19596;BME280;9945;46.010;8.946;2023-04-27T07:09:17;97382.91;;;16.50;51.12
19596;BME280;9945;46.010;8.946;2023-04-27T07:11:43;97382.19;;;16.56;52.00
19596;BME280;9945;46.010;8.946;2023-04-27T07:14:10;97382.78;;;16.67;51.52
19596;BME280;9945;46.010;8.946;2023-04-27T07:16:38;97381.41;;;16.85;51.62
19596;BME280;9945;46.010;8.946;2023-04-27T07:19:04;97373.13;;;16.74;48.86
19596;BME280;9945;46.010;8.946;2023-04-27T07:21:31;97374.84;;;16.81;47.33
19596;BME280;9945;46.010;8.946;2023-04-27T07:23:58;97373.38;;;16.64;48.98
19596;BME280;9945;46.010;8.946;2023-04-27T07:26:27;97380.75;;;16.69;46.44
19596;BME280;9945;46.010;8.946;2023-04-27T07:28:53;97377.94;;;16.70;47.31
19596;BME280;9945;46.010;8.946;2023-04-27T07:31:21;97381.31;;;16.64;48.12
19596;BME280;9945;46.010;8.946;2023-04-27T07:33:47;97375.38;;;16.77;48.80
19596;BME280;9945;46.010;8.946;2023-04-27T07:36:16;97378.75;;;16.71;50.34
19596;BME280;9945;46.010;8.946;2023-04-27T07:38:43;97374.56;;;16.76;48.17
19596;BME280;9945;46.010;8.946;2023-04-27T07:41:10;97378.75;;;16.85;50.88
19596;BME280;9945;46.010;8.946;2023-04-27T07:43:38;97378.22;;;16.90;50.65
19596;BME280;9945;46.010;8.946;2023-04-27T07:46:06;97385.59;;;16.94;50.03
19596;BME280;9945;46.010;8.946;2023-04-27T07:48:34;97388.34;;;17.01;49.80
19596;BME280;9945;46.010;8.946;2023-04-27T07:51:01;97383.97;;;17.08;49.76
19596;BME280;9945;46.010;8.946;2023-04-27T07:53:27;97383.66;;;17.18;50.32
19596;BME280;9945;46.010;8.946;2023-04-27T07:55:54;97380.72;;;17.27;48.94
19596;BME280;9945;46.010;8.946;2023-04-27T07:58:21;97377.34;;;17.33;50.14
19596;BME280;9945;46.010;8.946;2023-04-27T08:00:49;97382.22;;;17.51;48.83
19596;BME280;9945;46.010;8.946;2023-04-27T08:03:16;97382.84;;;17.68;48.18
19596;BME280;9945;46.010;8.946;2023-04-27T08:05:43;97377.94;;;17.86;45.94
19596;BME280;9945;46.010;8.946;2023-04-27T08:08:10;97376.41;;;17.98;44.46
19596;BME280;9945;46.010;8.946;2023-04-27T08:10:37;97372.56;;;18.01;44.11
19596;BME280;9945;46.010;8.946;2023-04-27T08:13:03;97380.75;;;18.06;43.12
19596;BME280;9945;46.010;8.946;2023-04-27T08:15:34;97376.72;;;18.10;43.69
19596;BME280;9945;46.010;8.946;2023-04-27T08:18:02;97367.34;;;18.14;43.66
19596;BME280;9945;46.010;8.946;2023-04-27T08:20:29;97372.16;;;18.53;43.56
19596;BME280;9945;46.010;8.946;2023-04-27T08:22:56;97358.75;;;18.61;41.06
19596;BME280;9945;46.010;8.946;2023-04-27T08:25:23;97364.06;;;18.61;41.49
19596;BME280;9945;46.010;8.946;2023-04-27T08:27:50;97361.91;;;18.78;40.91
19596;BME280;9945;46.010;8.946;2023-04-27T08:30:17;97364.78;;;18.83;40.55
19596;BME280;9945;46.010;8.946;2023-04-27T08:32:44;97368.59;;;18.67;41.82
19596;BME280;9945;46.010;8.946;2023-04-27T08:35:13;97370.38;;;18.60;41.65
19596;BME280;9945;46.010;8.946;2023-04-27T08:37:40;97370.25;;;18.75;40.80
19596;BME280;9945;46.010;8.946;2023-04-27T08:40:08;97363.56;;;18.79;41.13
19596;BME280;9945;46.010;8.946;2023-04-27T08:42:35;97355.81;;;18.84;41.39
19596;BME280;9945;46.010;8.946;2023-04-27T08:45:02;97359.94;;;18.93;40.26
19596;BME280;9945;46.010;8.946;2023-04-27T08:47:32;97356.47;;;18.93;40.67
19596;BME280;9945;46.010;8.946;2023-04-27T08:49:59;97356.00;;;18.82;40.91
19596;BME280;9945;46.010;8.946;2023-04-27T08:52:27;97356.00;;;18.82;41.35
19596;BME280;9945;46.010;8.946;2023-04-27T08:54:54;97360.13;;;18.92;40.87
19596;BME280;9945;46.010;8.946;2023-04-27T08:57:21;97359.50;;;18.89;40.47
19596;BME280;9945;46.010;8.946;2023-04-27T08:59:57;97359.41;;;19.04;39.92
19596;BME280;9945;46.010;8.946;2023-04-27T09:02:25;97354.75;;;19.19;39.47
19596;BME280;9945;46.010;8.946;2023-04-27T09:04:54;97354.31;;;19.09;39.95
19596;BME280;9945;46.010;8.946;2023-04-27T09:07:21;97352.91;;;19.13;40.77
19596;BME280;9945;46.010;8.946;2023-04-27T09:09:49;97354.31;;;19.16;39.97
19596;BME280;9945;46.010;8.946;2023-04-27T09:12:20;97352.13;;;19.33;41.49
19596;BME280;9945;46.010;8.946;2023-04-27T09:14:57;97350.13;;;19.41;39.83
19596;BME280;9945;46.010;8.946;2023-04-27T09:17:24;97359.59;;;19.57;39.83
19596;BME280;9945;46.010;8.946;2023-04-27T09:20:01;97351.84;;;19.69;40.11
19596;BME280;9945;46.010;8.946;2023-04-27T09:22:30;97353.38;;;19.37;40.28
19596;BME280;9945;46.010;8.946;2023-04-27T09:24:58;97347.75;;;19.53;40.28
19596;BME280;9945;46.010;8.946;2023-04-27T09:27:25;97353.88;;;19.67;40.15
19596;BME280;9945;46.010;8.946;2023-04-27T09:29:52;97351.84;;;19.75;39.45
19596;BME280;9945;46.010;8.946;2023-04-27T09:32:19;97353.09;;;19.92;40.13
19596;BME280;9945;46.010;8.946;2023-04-27T09:34:46;97358.84;;;20.22;39.12
19596;BME280;9945;46.010;8.946;2023-04-27T09:37:13;97359.47;;;20.24;39.33
19596;BME280;9945;46.010;8.946;2023-04-27T09:39:41;97361.69;;;20.08;38.45
19596;BME280;9945;46.010;8.946;2023-04-27T09:42:10;97358.63;;;20.11;38.66
19596;BME280;9945;46.010;8.946;2023-04-27T09:44:37;97362.31;;;20.03;39.45
19596;BME280;9945;46.010;8.946;2023-04-27T09:47:05;97352.91;;;20.00;38.11
19596;BME280;9945;46.010;8.946;2023-04-27T09:49:33;97351.88;;;20.28;38.06
19596;BME280;9945;46.010;8.946;2023-04-27T09:52:00;97351.69;;;20.56;38.62
19596;BME280;9945;46.010;8.946;2023-04-27T09:54:30;97360.19;;;20.84;36.83
19596;BME280;9945;46.010;8.946;2023-04-27T09:57:07;97341.09;;;21.07;36.56
19596;BME280;9945;46.010;8.946;2023-04-27T09:59:51;97341.03;;;21.27;36.81
19596;BME280;9945;46.010;8.946;2023-04-27T10:02:22;97334.72;;;21.14;37.13
19596;BME280;9945;46.010;8.946;2023-04-27T10:05:18;97340.09;;;21.01;35.58
19596;BME280;9945;46.010;8.946;2023-04-27T10:07:48;97333.31;;;21.05;36.22
19596;BME280;9945;46.010;8.946;2023-04-27T10:10:16;97338.69;;;20.99;36.98
19596;BME280;9945;46.010;8.946;2023-04-27T10:12:55;97324.25;;;21.26;36.10
19596;BME280;9945;46.010;8.946;2023-04-27T10:15:26;97330.88;;;21.48;35.81
19596;BME280;9945;46.010;8.946;2023-04-27T10:17:54;97320.84;;;21.44;36.29
19596;BME280;9945;46.010;8.946;2023-04-27T10:20:30;97317.59;;;21.42;36.12
19596;BME280;9945;46.010;8.946;2023-04-27T10:22:58;97326.47;;;21.67;35.75
19596;BME280;9945;46.010;8.946;2023-04-27T10:25:29;97324.88;;;21.60;35.78
19596;BME280;9945;46.010;8.946;2023-04-27T10:28:02;97327.66;;;21.71;35.96
19596;BME280;9945;46.010;8.946;2023-04-27T10:30:35;97314.38;;;21.65;34.92
19596;BME280;9945;46.010;8.946;2023-04-27T10:33:04;97316.53;;;21.81;35.64
19596;BME280;9945;46.010;8.946;2023-04-27T10:35:32;97315.41;;;21.64;35.38
19596;BME280;9945;46.010;8.946;2023-04-27T10:38:06;97321.97;;;21.61;35.97
19596;BME280;9945;46.010;8.946;2023-04-27T10:40:34;97329.16;;;21.61;35.21
19596;BME280;9945;46.010;8.946;2023-04-27T10:43:09;97322.78;;;21.68;35.80
19596;BME280;9945;46.010;8.946;2023-04-27T10:45:38;97328.00;;;21.81;34.98
19596;BME280;9945;46.010;8.946;2023-04-27T10:48:05;97325.59;;;21.73;34.75
19596;BME280;9945;46.010;8.946;2023-04-27T10:50:33;97318.25;;;21.69;35.29
19596;BME280;9945;46.010;8.946;2023-04-27T10:53:00;97321.91;;;21.74;35.14
19596;BME280;9945;46.010;8.946;2023-04-27T10:55:28;97320.28;;;21.73;35.21
19596;BME280;9945;46.010;8.946;2023-04-27T10:57:56;97319.44;;;21.73;35.13
19596;BME280;9945;46.010;8.946;2023-04-27T11:00:24;97317.00;;;21.71;35.49
19596;BME280;9945;46.010;8.946;2023-04-27T11:02:53;97325.88;;;21.65;34.75
19596;BME280;9945;46.010;8.946;2023-04-27T11:05:22;97318.47;;;21.67;35.69
19596;BME280;9945;46.010;8.946;2023-04-27T11:08:03;97317.00;;;21.71;34.97
19596;BME280;9945;46.010;8.946;2023-04-27T11:10:31;97316.56;;;21.74;35.13
19596;BME280;9945;46.010;8.946;2023-04-27T11:12:58;97315.81;;;21.99;35.49
19596;BME280;9945;46.010;8.946;2023-04-27T11:15:25;97316.69;;;22.17;34.08
19596;BME280;9945;46.010;8.946;2023-04-27T11:18:04;97317.50;;;22.18;34.82
19596;BME280;9945;46.010;8.946;2023-04-27T11:20:31;97308.47;;;22.37;33.60
19596;BME280;9945;46.010;8.946;2023-04-27T11:22:58;97315.78;;;22.67;33.09
19596;BME280;9945;46.010;8.946;2023-04-27T11:25:28;97297.47;;;22.52;33.34
19596;BME280;9945;46.010;8.946;2023-04-27T11:27:55;97301.28;;;22.38;34.10
19596;BME280;9945;46.010;8.946;2023-04-27T11:30:23;97309.47;;;22.43;34.20
19596;BME280;9945;46.010;8.946;2023-04-27T11:32:50;97309.34;;;22.31;33.79
19596;BME280;9945;46.010;8.946;2023-04-27T11:35:19;97305.09;;;22.48;33.59
19596;BME280;9945;46.010;8.946;2023-04-27T11:37:55;97299.34;;;22.70;33.41
19596;BME280;9945;46.010;8.946;2023-04-27T11:40:23;97300.00;;;22.83;33.67
19596;BME280;9945;46.010;8.946;2023-04-27T11:42:56;97302.69;;;23.01;32.89
19596;BME280;9945;46.010;8.946;2023-04-27T11:45:24;97297.34;;;23.31;32.77
19596;BME280;9945;46.010;8.946;2023-04-27T11:47:52;97291.34;;;23.36;32.06
19596;BME280;9945;46.010;8.946;2023-04-27T11:50:23;97293.91;;;23.43;32.50
19596;BME280;9945;46.010;8.946;2023-04-27T11:52:51;97288.50;;;23.49;32.11
19596;BME280;9945;46.010;8.946;2023-04-27T11:55:19;97287.81;;;23.54;31.66
19596;BME280;9945;46.010;8.946;2023-04-27T11:57:46;97291.38;;;23.48;30.61
19596;BME280;9945;46.010;8.946;2023-04-27T12:00:14;97282.00;;;23.27;31.45
19596;BME280;9945;46.010;8.946;2023-04-27T12:02:41;97277.75;;;23.37;31.23
19596;BME280;9945;46.010;8.946;2023-04-27T12:05:09;97272.13;;;23.57;32.14
19596;BME280;9945;46.010;8.946;2023-04-27T12:07:37;97281.13;;;23.74;30.48
19596;BME280;9945;46.010;8.946;2023-04-27T12:10:05;97278.78;;;23.66;30.54
19596;BME280;9945;46.010;8.946;2023-04-27T12:12:33;97272.88;;;23.64;30.33
19596;BME280;9945;46.010;8.946;2023-04-27T12:15:00;97268.22;;;23.83;31.42
19596;BME280;9945;46.010;8.946;2023-04-27T12:17:27;97266.28;;;23.90;30.46
19596;BME280;9945;46.010;8.946;2023-04-27T12:19:54;97266.72;;;23.99;30.22
19596;BME280;9945;46.010;8.946;2023-04-27T12:22:21;97261.84;;;23.96;30.23
19596;BME280;9945;46.010;8.946;2023-04-27T12:24:49;97259.84;;;23.91;29.70
19596;BME280;9945;46.010;8.946;2023-04-27T12:27:16;97267.41;;;23.83;30.55
19596;BME280;9945;46.010;8.946;2023-04-27T12:29:43;97260.94;;;23.90;31.51
19596;BME280;9945;46.010;8.946;2023-04-27T12:32:10;97256.97;;;24.04;31.50
19596;BME280;9945;46.010;8.946;2023-04-27T12:34:37;97251.72;;;24.09;30.91
19596;BME280;9945;46.010;8.946;2023-04-27T12:37:05;97243.84;;;24.26;30.78
19596;BME280;9945;46.010;8.946;2023-04-27T12:39:32;97252.47;;;24.28;30.66
19596;BME280;9945;46.010;8.946;2023-04-27T12:42:00;97254.63;;;24.08;30.37
19596;BME280;9945;46.010;8.946;2023-04-27T12:44:28;97261.84;;;24.07;30.02
19596;BME280;9945;46.010;8.946;2023-04-27T12:46:54;97254.22;;;24.23;30.79
19596;BME280;9945;46.010;8.946;2023-04-27T12:49:21;97255.00;;;24.11;30.20
19596;BME280;9945;46.010;8.946;2023-04-27T12:51:48;97251.84;;;24.03;30.28
19596;BME280;9945;46.010;8.946;2023-04-27T12:54:16;97245.81;;;23.96;30.90
19596;BME280;9945;46.010;8.946;2023-04-27T12:56:43;97247.06;;;23.93;30.74
19596;BME280;9945;46.010;8.946;2023-04-27T12:59:11;97248.13;;;24.04;30.37
19596;BME280;9945;46.010;8.946;2023-04-27T13:01:38;97258.03;;;24.15;30.77
19596;BME280;9945;46.010;8.946;2023-04-27T13:04:06;97241.25;;;24.20;30.61
19596;BME280;9945;46.010;8.946;2023-04-27T13:06:33;97248.88;;;24.23;30.89
19596;BME280;9945;46.010;8.946;2023-04-27T13:09:00;97236.03;;;24.36;30.56
19596;BME280;9945;46.010;8.946;2023-04-27T13:11:27;97246.16;;;24.34;30.03
19596;BME280;9945;46.010;8.946;2023-04-27T13:13:54;97241.53;;;24.30;30.94